sensor_id;sensor_type;location;lat;lon;timestamp;pressure;altitude;pressure_sealevel;temperature;humidity
14885;BME280;7534;50.762;7.000;2023-07-13T00:01:05;86901.63;;;-143.16;43.40
14885;BME280;7534;50.762;7.000;2023-07-13T00:03:37;86927.84;;;-143.16;43.44
14885;BME280;7534;50.762;7.000;2023-07-13T00:06:06;86873.38;;;-143.16;43.85
14885;BME280;7534;50.762;7.000;2023-07-13T00:08:33;86881.44;;;-143.16;43.66
14885;BME280;7534;50.762;7.000;2023-07-13T00:11:02;86893.53;;;-143.16;43.46
14885;BME280;7534;50.762;7.000;2023-07-13T00:13:33;86897.59;;;-143.16;43.81
14885;BME280;7534;50.762;7.000;2023-07-13T00:15:59;86933.91;;;-143.16;43.57
14885;BME280;7534;50.762;7.000;2023-07-13T00:18:26;86911.69;;;-143.16;43.87
14885;BME280;7534;50.762;7.000;2023-07-13T00:20:56;86889.50;;;-143.16;44.24
14885;BME280;7534;50.762;7.000;2023-07-13T00:23:37;86933.91;;;-143.16;44.26
14885;BME280;7534;50.762;7.000;2023-07-13T00:26:08;86875.38;;;-143.16;44.20
14885;BME280;7534;50.762;7.000;2023-07-13T00:28:35;87071.13;;;-143.16;43.79
14885;BME280;7534;50.762;7.000;2023-07-13T00:31:05;87085.25;;;-143.16;43.93
14885;BME280;7534;50.762;7.000;2023-07-13T00:33:33;86897.59;;;-143.16;44.07
14885;BME280;7534;50.762;7.000;2023-07-13T00:35:59;86939.97;;;-143.16;44.17
14885;BME280;7534;50.762;7.000;2023-07-13T00:38:25;86958.13;;;-143.16;44.21
14885;BME280;7534;50.762;7.000;2023-07-13T00:40:51;86946.00;;;-143.16;44.58
14885;BME280;7534;50.762;7.000;2023-07-13T00:43:22;86946.00;;;-143.16;44.54
14885;BME280;7534;50.762;7.000;2023-07-13T00:48:34;86944.00;;;-143.16;44.79
14885;BME280;7534;50.762;7.000;2023-07-13T00:51:08;86939.97;;;-143.16;44.58
14885;BME280;7534;50.762;7.000;2023-07-13T00:53:34;86921.78;;;-143.16;44.89
14885;BME280;7534;50.762;7.000;2023-07-13T00:56:05;86948.03;;;-143.16;45.08
14885;BME280;7534;50.762;7.000;2023-07-13T00:58:38;86978.28;;;-143.16;45.00
14885;BME280;7534;50.762;7.000;2023-07-13T01:01:09;86984.34;;;-143.16;45.11
14885;BME280;7534;50.762;7.000;2023-07-13T01:03:38;86966.19;;;-143.16;45.44
14885;BME280;7534;50.762;7.000;2023-07-13T01:06:04;86970.22;;;-143.16;45.13
14885;BME280;7534;50.762;7.000;2023-07-13T01:08:30;87006.53;;;-143.16;45.25
14885;BME280;7534;50.762;7.000;2023-07-13T01:10:58;86990.41;;;-143.16;45.35
14885;BME280;7534;50.762;7.000;2023-07-13T01:13:37;86998.47;;;-143.16;45.43
14885;BME280;7534;50.762;7.000;2023-07-13T01:16:17;86992.41;;;-143.16;45.47
14885;BME280;7534;50.762;7.000;2023-07-13T01:18:45;86984.34;;;-143.16;45.47
14885;BME280;7534;50.762;7.000;2023-07-13T01:21:13;87022.69;;;-143.16;45.81
14885;BME280;7534;50.762;7.000;2023-07-13T01:23:39;87020.69;;;-143.16;45.93
14885;BME280;7534;50.762;7.000;2023-07-13T01:26:10;86968.22;;;-143.16;46.12
14885;BME280;7534;50.762;7.000;2023-07-13T01:28:39;86998.47;;;-143.16;46.20
14885;BME280;7534;50.762;7.000;2023-07-13T01:31:06;87038.84;;;-143.16;46.12
14885;BME280;7534;50.762;7.000;2023-07-13T01:33:32;87022.69;;;-143.16;46.38
14885;BME280;7534;50.762;7.000;2023-07-13T01:36:10;87032.78;;;-143.16;46.06
14885;BME280;7534;50.762;7.000;2023-07-13T01:38:39;87018.66;;;-143.16;46.23
14885;BME280;7534;50.762;7.000;2023-07-13T01:41:13;87046.91;;;-143.16;46.62
14885;BME280;7534;50.762;7.000;2023-07-13T01:43:39;87050.94;;;-143.16;46.57
14885;BME280;7534;50.762;7.000;2023-07-13T01:46:05;87046.91;;;-143.16;46.96
14885;BME280;7534;50.762;7.000;2023-07-13T01:48:31;87069.09;;;-143.16;46.56
14885;BME280;7534;50.762;7.000;2023-07-13T01:50:57;87079.19;;;-143.16;46.87
14885;BME280;7534;50.762;7.000;2023-07-13T01:53:31;87073.16;;;-143.16;46.92
14885;BME280;7534;50.762;7.000;2023-07-13T01:55:57;87034.81;;;-143.16;47.03
14885;BME280;7534;50.762;7.000;2023-07-13T01:58:27;87059.00;;;-143.16;46.99
14885;BME280;7534;50.762;7.000;2023-07-13T02:00:53;87059.00;;;-143.16;47.11
14885;BME280;7534;50.762;7.000;2023-07-13T02:03:21;87079.19;;;-143.16;47.07
14885;BME280;7534;50.762;7.000;2023-07-13T02:05:50;87077.19;;;-143.16;47.21
14885;BME280;7534;50.762;7.000;2023-07-13T02:08:16;87101.41;;;-143.16;47.15
14885;BME280;7534;50.762;7.000;2023-07-13T02:10:42;86990.41;;;-143.16;46.84
14885;BME280;7534;50.762;7.000;2023-07-13T02:13:08;87028.75;;;-143.16;47.36
14885;BME280;7534;50.762;7.000;2023-07-13T02:15:39;87042.88;;;-143.16;47.19
14885;BME280;7534;50.762;7.000;2023-07-13T02:18:08;87046.91;;;-143.16;47.12
14885;BME280;7534;50.762;7.000;2023-07-13T02:20:37;87040.84;;;-143.16;47.13
14885;BME280;7534;50.762;7.000;2023-07-13T02:23:03;87022.69;;;-143.16;47.09
14885;BME280;7534;50.762;7.000;2023-07-13T02:25:34;87095.34;;;-143.16;46.74
14885;BME280;7534;50.762;7.000;2023-07-13T02:28:03;87032.78;;;-143.16;46.91
14885;BME280;7534;50.762;7.000;2023-07-13T02:30:43;87087.25;;;-143.16;46.57
14885;BME280;7534;50.762;7.000;2023-07-13T02:33:09;86968.22;;;-143.16;46.77
14885;BME280;7534;50.762;7.000;2023-07-13T02:35:35;87077.19;;;-143.16;46.56
14885;BME280;7534;50.762;7.000;2023-07-13T02:38:04;87046.91;;;-143.16;46.71
14885;BME280;7534;50.762;7.000;2023-07-13T02:40:44;87069.09;;;-143.16;46.82
14885;BME280;7534;50.762;7.000;2023-07-13T02:43:15;87044.88;;;-143.16;46.74
14885;BME280;7534;50.762;7.000;2023-07-13T02:45:45;87089.28;;;-143.16;46.83
14885;BME280;7534;50.762;7.000;2023-07-13T02:48:13;87079.19;;;-143.16;46.96
14885;BME280;7534;50.762;7.000;2023-07-13T02:50:44;87103.41;;;-143.16;46.95
14885;BME280;7534;50.762;7.000;2023-07-13T02:53:11;87069.09;;;-143.16;46.55
14885;BME280;7534;50.762;7.000;2023-07-13T02:55:36;87091.31;;;-143.16;46.51
14885;BME280;7534;50.762;7.000;2023-07-13T02:58:02;87091.31;;;-143.16;46.80
14885;BME280;7534;50.762;7.000;2023-07-13T03:00:29;87109.47;;;-143.16;47.04
14885;BME280;7534;50.762;7.000;2023-07-13T03:02:55;87087.25;;;-143.16;46.95
14885;BME280;7534;50.762;7.000;2023-07-13T03:05:24;87123.59;;;-143.16;47.18
14885;BME280;7534;50.762;7.000;2023-07-13T03:07:49;87081.22;;;-143.16;47.02
14885;BME280;7534;50.762;7.000;2023-07-13T03:10:16;87107.44;;;-143.16;47.26
14885;BME280;7534;50.762;7.000;2023-07-13T03:12:42;87127.63;;;-143.16;47.23
14885;BME280;7534;50.762;7.000;2023-07-13T03:15:08;87135.69;;;-143.16;47.40
14885;BME280;7534;50.762;7.000;2023-07-13T03:17:35;87153.88;;;-143.16;47.40
14885;BME280;7534;50.762;7.000;2023-07-13T03:20:00;87153.88;;;-143.16;47.67
14885;BME280;7534;50.762;7.000;2023-07-13T03:22:26;87155.88;;;-143.16;47.87
14885;BME280;7534;50.762;7.000;2023-07-13T03:24:51;87224.50;;;-143.16;47.86
14885;BME280;7534;50.762;7.000;2023-07-13T03:27:17;87168.00;;;-143.16;47.92
14885;BME280;7534;50.762;7.000;2023-07-13T03:29:43;87147.81;;;-143.16;48.17
14885;BME280;7534;50.762;7.000;2023-07-13T03:32:10;87155.88;;;-143.16;47.98
14885;BME280;7534;50.762;7.000;2023-07-13T03:34:35;87180.09;;;-143.16;47.91
14885;BME280;7534;50.762;7.000;2023-07-13T03:37:02;87157.91;;;-143.16;47.77
14885;BME280;7534;50.762;7.000;2023-07-13T03:39:28;87133.69;;;-143.16;47.76
14885;BME280;7534;50.762;7.000;2023-07-13T03:41:54;87139.75;;;-143.16;47.83
14885;BME280;7534;50.762;7.000;2023-07-13T03:44:20;87105.44;;;-143.16;47.79
14885;BME280;7534;50.762;7.000;2023-07-13T03:46:56;87083.22;;;-143.16;47.79
14885;BME280;7534;50.762;7.000;2023-07-13T03:49:21;87105.44;;;-143.16;47.59
14885;BME280;7534;50.762;7.000;2023-07-13T03:52:01;87103.41;;;-143.16;47.64
14885;BME280;7534;50.762;7.000;2023-07-13T03:54:28;87244.69;;;-143.16;47.40
14885;BME280;7534;50.762;7.000;2023-07-13T03:56:53;87101.41;;;-143.16;47.53
14885;BME280;7534;50.762;7.000;2023-07-13T03:59:28;87115.53;;;-143.16;47.53
14885;BME280;7534;50.762;7.000;2023-07-13T04:02:01;87107.44;;;-143.16;47.67
14885;BME280;7534;50.762;7.000;2023-07-13T04:04:27;87071.13;;;-143.16;47.71
14885;BME280;7534;50.762;7.000;2023-07-13T04:06:55;87099.38;;;-143.16;47.73
14885;BME280;7534;50.762;7.000;2023-07-13T04:09:37;87075.16;;;-143.16;47.62
14885;BME280;7534;50.762;7.000;2023-07-13T04:12:04;87077.19;;;-143.16;47.58
14885;BME280;7534;50.762;7.000;2023-07-13T04:15:13;87099.38;;;-143.16;47.65
14885;BME280;7534;50.762;7.000;2023-07-13T04:17:46;87085.25;;;-143.16;47.98
14885;BME280;7534;50.762;7.000;2023-07-13T04:20:14;87087.25;;;-143.16;48.17
14885;BME280;7534;50.762;7.000;2023-07-13T04:22:52;87032.78;;;-143.16;47.86
14885;BME280;7534;50.762;7.000;2023-07-13T04:25:21;87050.94;;;-143.16;47.98
14885;BME280;7534;50.762;7.000;2023-07-13T04:27:50;87097.34;;;-143.16;48.01
14885;BME280;7534;50.762;7.000;2023-07-13T04:30:33;87006.53;;;-143.16;48.17
14885;BME280;7534;50.762;7.000;2023-07-13T04:33:07;87006.53;;;-143.16;47.81
14885;BME280;7534;50.762;7.000;2023-07-13T04:35:36;87018.66;;;-143.16;47.42
14885;BME280;7534;50.762;7.000;2023-07-13T04:38:09;86982.34;;;-143.16;47.04
14885;BME280;7534;50.762;7.000;2023-07-13T04:40:37;86897.59;;;-143.16;46.25
14885;BME280;7534;50.762;7.000;2023-07-13T04:43:03;86835.03;;;-143.16;45.58
14885;BME280;7534;50.762;7.000;2023-07-13T04:45:31;86675.63;;;-143.16;44.17
14885;BME280;7534;50.762;7.000;2023-07-13T04:48:01;86475.88;;;-143.16;41.57
14885;BME280;7534;50.762;7.000;2023-07-13T04:50:32;86144.97;;;-143.16;38.75
14885;BME280;7534;50.762;7.000;2023-07-13T04:53:01;85912.97;;;-143.16;35.42
14885;BME280;7534;50.762;7.000;2023-07-13T04:55:37;85743.53;;;-143.16;33.59
14885;BME280;7534;50.762;7.000;2023-07-13T04:58:04;85923.06;;;-143.16;33.94
14885;BME280;7534;50.762;7.000;2023-07-13T05:00:31;85880.69;;;-143.16;34.05
14885;BME280;7534;50.762;7.000;2023-07-13T05:02:58;85884.72;;;-143.16;33.93
14885;BME280;7534;50.762;7.000;2023-07-13T05:05:26;85840.34;;;-143.16;33.69
14885;BME280;7534;50.762;7.000;2023-07-13T05:07:53;85941.22;;;-143.16;34.48
14885;BME280;7534;50.762;7.000;2023-07-13T05:10:19;86011.84;;;-143.16;35.10
14885;BME280;7534;50.762;7.000;2023-07-13T05:12:45;86034.03;;;-143.16;35.66
14885;BME280;7534;50.762;7.000;2023-07-13T05:15:11;86235.75;;;-143.16;37.52
14885;BME280;7534;50.762;7.000;2023-07-13T05:17:38;86288.22;;;-143.16;37.44
14885;BME280;7534;50.762;7.000;2023-07-13T05:20:06;86255.94;;;-143.16;37.78
14885;BME280;7534;50.762;7.000;2023-07-13T05:22:31;86403.22;;;-143.16;39.12
14885;BME280;7534;50.762;7.000;2023-07-13T05:24:57;86441.56;;;-143.16;39.95
14885;BME280;7534;50.762;7.000;2023-07-13T05:27:23;86393.13;;;-143.16;39.52
14885;BME280;7534;50.762;7.000;2023-07-13T05:29:49;86255.94;;;-143.16;39.11
14885;BME280;7534;50.762;7.000;2023-07-13T05:32:16;86249.88;;;-143.16;37.99
14885;BME280;7534;50.762;7.000;2023-07-13T05:34:42;86098.56;;;-143.16;37.43
14885;BME280;7534;50.762;7.000;2023-07-13T05:37:08;86171.22;;;-143.16;37.40
14885;BME280;7534;50.762;7.000;2023-07-13T05:39:34;86259.97;;;-143.16;38.33
14885;BME280;7534;50.762;7.000;2023-07-13T05:42:00;86296.28;;;-143.16;39.15
14885;BME280;7534;50.762;7.000;2023-07-13T05:44:25;86379.00;;;-143.16;39.46
14885;BME280;7534;50.762;7.000;2023-07-13T05:46:51;86443.56;;;-143.16;40.70
14885;BME280;7534;50.762;7.000;2023-07-13T05:49:17;86457.69;;;-143.16;40.92
14885;BME280;7534;50.762;7.000;2023-07-13T05:51:43;86451.66;;;-143.16;40.94
14885;BME280;7534;50.762;7.000;2023-07-13T05:54:09;86512.19;;;-143.16;41.93
14885;BME280;7534;50.762;7.000;2023-07-13T05:56:34;86550.50;;;-143.16;42.17
14885;BME280;7534;50.762;7.000;2023-07-13T05:59:00;86631.22;;;-143.16;42.38
14885;BME280;7534;50.762;7.000;2023-07-13T06:01:26;86508.16;;;-143.16;41.89
14885;BME280;7534;50.762;7.000;2023-07-13T06:03:52;86465.78;;;-143.16;41.74
14885;BME280;7534;50.762;7.000;2023-07-13T06:06:17;86518.22;;;-143.16;41.55
14885;BME280;7534;50.762;7.000;2023-07-13T06:08:43;86451.66;;;-143.16;42.01
14885;BME280;7534;50.762;7.000;2023-07-13T06:11:22;86494.03;;;-143.16;41.64
14885;BME280;7534;50.762;7.000;2023-07-13T06:13:49;86455.69;;;-143.16;41.68
14885;BME280;7534;50.762;7.000;2023-07-13T06:16:16;86457.69;;;-143.16;41.40
14885;BME280;7534;50.762;7.000;2023-07-13T06:18:42;86393.13;;;-143.16;40.74
14885;BME280;7534;50.762;7.000;2023-07-13T06:21:13;86332.59;;;-143.16;40.04
14885;BME280;7534;50.762;7.000;2023-07-13T06:23:55;86264.00;;;-143.16;39.57
14885;BME280;7534;50.762;7.000;2023-07-13T06:26:21;86144.97;;;-143.16;38.59
14885;BME280;7534;50.762;7.000;2023-07-13T06:28:47;86132.88;;;-143.16;37.90
14885;BME280;7534;50.762;7.000;2023-07-13T06:31:15;86144.97;;;-143.16;37.51
14885;BME280;7534;50.762;7.000;2023-07-13T06:33:41;86070.34;;;-143.16;37.47
14885;BME280;7534;50.762;7.000;2023-07-13T06:36:08;86050.16;;;-143.16;37.35
14885;BME280;7534;50.762;7.000;2023-07-13T06:38:34;86023.94;;;-143.16;37.35
14885;BME280;7534;50.762;7.000;2023-07-13T06:41:00;86001.75;;;-143.16;37.02
14885;BME280;7534;50.762;7.000;2023-07-13T06:43:26;85941.22;;;-143.16;36.49
14885;BME280;7534;50.762;7.000;2023-07-13T06:45:55;85912.97;;;-143.16;36.23
14885;BME280;7534;50.762;7.000;2023-07-13T06:48:21;85953.31;;;-143.16;36.20
14885;BME280;7534;50.762;7.000;2023-07-13T06:50:49;85876.66;;;-143.16;36.60
14885;BME280;7534;50.762;7.000;2023-07-13T06:53:20;85862.53;;;-143.16;35.81
14885;BME280;7534;50.762;7.000;2023-07-13T06:55:46;85773.78;;;-143.16;35.31
14885;BME280;7534;50.762;7.000;2023-07-13T06:58:16;85533.75;;;-143.16;34.08
14885;BME280;7534;50.762;7.000;2023-07-13T07:00:42;85005.28;;;-143.16;31.03
14885;BME280;7534;50.762;7.000;2023-07-13T07:03:08;84614.06;;;-143.16;28.71
14885;BME280;7534;50.762;7.000;2023-07-13T07:05:34;84069.63;;;-143.16;26.78
14885;BME280;7534;50.762;7.000;2023-07-13T07:08:00;83662.38;;;-143.16;24.94
14885;BME280;7534;50.762;7.000;2023-07-13T07:10:26;83489.00;;;-143.16;24.06
14885;BME280;7534;50.762;7.000;2023-07-13T07:12:52;82835.91;;;-143.16;22.99
14885;BME280;7534;50.762;7.000;2023-07-13T07:15:18;82376.38;;;-143.16;21.98
14885;BME280;7534;50.762;7.000;2023-07-13T07:17:44;81927.00;;;-143.16;21.31
14885;BME280;7534;50.762;7.000;2023-07-13T07:20:11;81423.28;;;-143.16;20.70
14885;BME280;7534;50.762;7.000;2023-07-13T07:22:36;81340.69;;;-143.16;20.46
14885;BME280;7534;50.762;7.000;2023-07-13T07:25:05;81431.34;;;-143.16;20.51
14885;BME280;7534;50.762;7.000;2023-07-13T07:27:32;81675.16;;;-143.16;20.61
14885;BME280;7534;50.762;7.000;2023-07-13T07:29:57;81802.09;;;-143.16;20.89
14885;BME280;7534;50.762;7.000;2023-07-13T07:32:23;82217.19;;;-143.16;21.13
14885;BME280;7534;50.762;7.000;2023-07-13T07:34:49;82698.84;;;-143.16;22.36
14885;BME280;7534;50.762;7.000;2023-07-13T07:37:17;83339.81;;;-143.16;23.52
14885;BME280;7534;50.762;7.000;2023-07-13T07:39:46;83613.97;;;-143.16;24.47
14885;BME280;7534;50.762;7.000;2023-07-13T07:42:11;83859.94;;;-143.16;25.37
14885;BME280;7534;50.762;7.000;2023-07-13T07:44:39;83849.88;;;-143.16;25.31
14885;BME280;7534;50.762;7.000;2023-07-13T07:47:06;83652.28;;;-143.16;24.83
14885;BME280;7534;50.762;7.000;2023-07-13T07:49:32;83480.94;;;-143.16;24.47
14885;BME280;7534;50.762;7.000;2023-07-13T07:51:57;83007.22;;;-143.16;23.53
14885;BME280;7534;50.762;7.000;2023-07-13T07:54:23;82674.66;;;-143.16;22.67
14885;BME280;7534;50.762;7.000;2023-07-13T07:56:49;82743.19;;;-143.16;22.61
14885;BME280;7534;50.762;7.000;2023-07-13T07:59:15;83103.97;;;-143.16;23.21
14885;BME280;7534;50.762;7.000;2023-07-13T08:01:40;83146.31;;;-143.16;23.25
14885;BME280;7534;50.762;7.000;2023-07-13T08:04:06;83065.69;;;-143.16;23.20
14885;BME280;7534;50.762;7.000;2023-07-13T08:06:33;82841.94;;;-143.16;22.56
14885;BME280;7534;50.762;7.000;2023-07-13T08:09:00;82942.72;;;-143.16;22.72
14885;BME280;7534;50.762;7.000;2023-07-13T08:11:27;83089.88;;;-143.16;23.03
14885;BME280;7534;50.762;7.000;2023-07-13T08:13:53;83043.50;;;-143.16;22.75
14885;BME280;7534;50.762;7.000;2023-07-13T08:16:18;83307.56;;;-143.16;23.41
14885;BME280;7534;50.762;7.000;2023-07-13T08:18:45;83472.88;;;-143.16;23.76
14885;BME280;7534;50.762;7.000;2023-07-13T08:21:11;83398.28;;;-143.16;23.71
14885;BME280;7534;50.762;7.000;2023-07-13T08:23:36;83271.28;;;-143.16;23.61
14885;BME280;7534;50.762;7.000;2023-07-13T08:26:03;83297.50;;;-143.16;23.93
14885;BME280;7534;50.762;7.000;2023-07-13T08:28:30;83460.78;;;-143.16;23.94
14885;BME280;7534;50.762;7.000;2023-07-13T08:31:06;83543.44;;;-143.16;23.89
14885;BME280;7534;50.762;7.000;2023-07-13T08:33:35;83476.91;;;-143.16;23.76
14885;BME280;7534;50.762;7.000;2023-07-13T08:36:01;83392.22;;;-143.16;23.41
14885;BME280;7534;50.762;7.000;2023-07-13T08:38:27;83355.94;;;-143.16;23.42
14885;BME280;7534;50.762;7.000;2023-07-13T08:40:56;83263.22;;;-143.16;23.37
14885;BME280;7534;50.762;7.000;2023-07-13T08:43:29;82634.34;;;-143.16;21.84
14885;BME280;7534;50.762;7.000;2023-07-13T08:46:37;82191.00;;;-143.16;20.90
14885;BME280;7534;50.762;7.000;2023-07-13T08:49:14;82876.22;;;-143.16;22.06
14885;BME280;7534;50.762;7.000;2023-07-13T08:51:49;83073.75;;;-143.16;22.76
14885;BME280;7534;50.762;7.000;2023-07-13T08:54:37;82924.59;;;-143.16;22.51
14885;BME280;7534;50.762;7.000;2023-07-13T08:57:15;82773.41;;;-143.16;22.17
14885;BME280;7534;50.762;7.000;2023-07-13T08:59:41;82618.22;;;-143.16;21.99
14885;BME280;7534;50.762;7.000;2023-07-13T09:02:25;82678.69;;;-143.16;22.39
14885;BME280;7534;50.762;7.000;2023-07-13T09:05:04;82948.78;;;-143.16;22.65
14885;BME280;7534;50.762;7.000;2023-07-13T09:13:37;82545.69;;;-143.16;22.08
14885;BME280;7534;50.762;7.000;2023-07-13T09:16:05;82493.28;;;-143.16;21.93
14885;BME280;7534;50.762;7.000;2023-07-13T09:18:44;82495.28;;;-143.16;21.90
14885;BME280;7534;50.762;7.000;2023-07-13T09:21:29;82184.94;;;-143.16;21.23
14885;BME280;7534;50.762;7.000;2023-07-13T09:24:06;82182.94;;;-143.16;21.44
14885;BME280;7534;50.762;7.000;2023-07-13T09:26:45;82047.91;;;-143.16;21.31
14885;BME280;7534;50.762;7.000;2023-07-13T09:29:33;82509.41;;;-143.16;21.50
14885;BME280;7534;50.762;7.000;2023-07-13T09:32:04;82878.22;;;-143.16;22.25
14885;BME280;7534;50.762;7.000;2023-07-13T09:34:33;83136.22;;;-143.16;22.94
14885;BME280;7534;50.762;7.000;2023-07-13T09:36:59;83160.41;;;-143.16;23.42
14885;BME280;7534;50.762;7.000;2023-07-13T09:39:33;83335.78;;;-143.16;23.37
14885;BME280;7534;50.762;7.000;2023-07-13T09:42:16;83642.22;;;-143.16;24.36
14885;BME280;7534;50.762;7.000;2023-07-13T09:47:28;83946.63;;;-143.16;25.24
14885;BME280;7534;50.762;7.000;2023-07-13T09:50:09;83704.72;;;-143.16;24.71
14885;BME280;7534;50.762;7.000;2023-07-13T09:52:53;83732.94;;;-143.16;24.95
14885;BME280;7534;50.762;7.000;2023-07-13T09:55:25;84073.66;;;-143.16;25.66
14885;BME280;7534;50.762;7.000;2023-07-13T09:57:52;84267.22;;;-143.16;26.87
14885;BME280;7534;50.762;7.000;2023-07-13T10:00:26;84118.03;;;-143.16;26.22
14885;BME280;7534;50.762;7.000;2023-07-13T10:03:17;84122.06;;;-143.16;26.10
14885;BME280;7534;50.762;7.000;2023-07-13T10:05:45;84293.44;;;-143.16;26.63
14885;BME280;7534;50.762;7.000;2023-07-13T10:08:29;84480.97;;;-143.16;27.13
14885;BME280;7534;50.762;7.000;2023-07-13T10:11:21;84476.94;;;-143.16;27.56
14885;BME280;7534;50.762;7.000;2023-07-13T10:16:41;84821.78;;;-143.16;29.06
14885;BME280;7534;50.762;7.000;2023-07-13T10:19:27;84791.53;;;-143.16;28.55
14885;BME280;7534;50.762;7.000;2023-07-13T10:22:22;84452.75;;;-143.16;27.31
14885;BME280;7534;50.762;7.000;2023-07-13T10:24:49;84337.81;;;-143.16;26.73
14885;BME280;7534;50.762;7.000;2023-07-13T10:27:20;84333.75;;;-143.16;27.02
14885;BME280;7534;50.762;7.000;2023-07-13T10:29:59;84533.41;;;-143.16;27.81
14885;BME280;7534;50.762;7.000;2023-07-13T10:32:26;84658.44;;;-143.16;27.55
14885;BME280;7534;50.762;7.000;2023-07-13T10:34:53;84624.13;;;-143.16;27.59
14885;BME280;7534;50.762;7.000;2023-07-13T10:37:41;84674.56;;;-143.16;27.84
14885;BME280;7534;50.762;7.000;2023-07-13T10:40:18;84519.28;;;-143.16;26.97
14885;BME280;7534;50.762;7.000;2023-07-13T10:42:48;84533.41;;;-143.16;26.56
14885;BME280;7534;50.762;7.000;2023-07-13T10:45:20;84618.09;;;-143.16;26.16
14885;BME280;7534;50.762;7.000;2023-07-13T10:47:48;84696.75;;;-143.16;26.53
14885;BME280;7534;50.762;7.000;2023-07-13T10:50:23;84712.88;;;-143.16;26.28
14885;BME280;7534;50.762;7.000;2023-07-13T10:52:54;84763.28;;;-143.16;26.90
14885;BME280;7534;50.762;7.000;2023-07-13T10:55:40;84652.38;;;-143.16;26.17
14885;BME280;7534;50.762;7.000;2023-07-13T10:58:41;84561.63;;;-143.16;25.67
14885;BME280;7534;50.762;7.000;2023-07-13T11:01:13;84458.78;;;-143.16;25.94
14885;BME280;7534;50.762;7.000;2023-07-13T11:04:19;84690.69;;;-143.16;26.13
14885;BME280;7534;50.762;7.000;2023-07-13T11:06:49;84773.38;;;-143.16;26.16
14885;BME280;7534;50.762;7.000;2023-07-13T11:09:58;84747.16;;;-143.16;25.96
14885;BME280;7534;50.762;7.000;2023-07-13T11:17:37;84956.91;;;-143.16;26.46
14885;BME280;7534;50.762;7.000;2023-07-13T11:23:07;85122.28;;;-143.16;27.03
14885;BME280;7534;50.762;7.000;2023-07-13T11:25:35;85144.47;;;-143.16;27.79
14885;BME280;7534;50.762;7.000;2023-07-13T11:28:25;85136.41;;;-143.16;27.58
14885;BME280;7534;50.762;7.000;2023-07-13T11:36:18;85015.38;;;-143.16;27.62
14885;BME280;7534;50.762;7.000;2023-07-13T11:41:45;85013.38;;;-143.16;27.63
14885;BME280;7534;50.762;7.000;2023-07-13T11:44:20;85049.66;;;-143.16;27.15
14885;BME280;7534;50.762;7.000;2023-07-13T11:46:53;85164.63;;;-143.16;27.73
14885;BME280;7534;50.762;7.000;2023-07-13T11:49:25;85215.06;;;-143.16;27.77
14885;BME280;7534;50.762;7.000;2023-07-13T11:51:53;85344.13;;;-143.16;28.29
14885;BME280;7534;50.762;7.000;2023-07-13T11:54:49;85370.34;;;-143.16;28.54
14885;BME280;7534;50.762;7.000;2023-07-13T11:57:32;85509.53;;;-143.16;28.83
14885;BME280;7534;50.762;7.000;2023-07-13T12:00:25;85404.66;;;-143.16;28.92
14885;BME280;7534;50.762;7.000;2023-07-13T12:02:56;85319.94;;;-143.16;29.08
14885;BME280;7534;50.762;7.000;2023-07-13T12:05:23;85315.91;;;-143.16;28.63
14885;BME280;7534;50.762;7.000;2023-07-13T12:07:51;85330.03;;;-143.16;28.58
14885;BME280;7534;50.762;7.000;2023-07-13T12:10:30;85267.50;;;-143.16;28.75
14885;BME280;7534;50.762;7.000;2023-07-13T12:13:03;85346.16;;;-143.16;29.40
14885;BME280;7534;50.762;7.000;2023-07-13T12:15:43;85394.56;;;-143.16;29.66
14885;BME280;7534;50.762;7.000;2023-07-13T12:18:23;85473.22;;;-143.16;30.15
14885;BME280;7534;50.762;7.000;2023-07-13T12:20:51;85499.44;;;-143.16;30.84
14885;BME280;7534;50.762;7.000;2023-07-13T12:23:28;85537.78;;;-143.16;31.11
14885;BME280;7534;50.762;7.000;2023-07-13T12:25:55;85578.13;;;-143.16;31.59
14885;BME280;7534;50.762;7.000;2023-07-13T12:28:38;85606.34;;;-143.16;31.48
14885;BME280;7534;50.762;7.000;2023-07-13T12:31:25;85670.91;;;-143.16;31.83
14885;BME280;7534;50.762;7.000;2023-07-13T12:33:59;85638.63;;;-143.16;31.33
14885;BME280;7534;50.762;7.000;2023-07-13T12:36:26;85622.50;;;-143.16;31.04
14885;BME280;7534;50.762;7.000;2023-07-13T12:38:52;85523.66;;;-143.16;30.75
14885;BME280;7534;50.762;7.000;2023-07-13T12:41:18;85434.91;;;-143.16;30.39
14885;BME280;7534;50.762;7.000;2023-07-13T12:43:45;85330.03;;;-143.16;29.63
14885;BME280;7534;50.762;7.000;2023-07-13T12:46:23;85235.22;;;-143.16;29.20
14885;BME280;7534;50.762;7.000;2023-07-13T12:48:54;85192.88;;;-143.16;28.93
14885;BME280;7534;50.762;7.000;2023-07-13T12:51:27;85081.94;;;-143.16;29.01
14885;BME280;7534;50.762;7.000;2023-07-13T12:54:11;85138.41;;;-143.16;28.76
14885;BME280;7534;50.762;7.000;2023-07-13T12:56:37;85061.78;;;-143.16;29.32
14885;BME280;7534;50.762;7.000;2023-07-13T12:59:04;85098.06;;;-143.16;27.81
14885;BME280;7534;50.762;7.000;2023-07-13T13:01:35;85134.38;;;-143.16;27.76
14885;BME280;7534;50.762;7.000;2023-07-13T13:04:04;85170.69;;;-143.16;27.71
14885;BME280;7534;50.762;7.000;2023-07-13T13:06:34;85096.06;;;-143.16;27.82
14885;BME280;7534;50.762;7.000;2023-07-13T13:09:02;85049.66;;;-143.16;27.13
14885;BME280;7534;50.762;7.000;2023-07-13T13:11:31;84973.03;;;-143.16;27.04
14885;BME280;7534;50.762;7.000;2023-07-13T13:13:57;84958.91;;;-143.16;27.36
14885;BME280;7534;50.762;7.000;2023-07-13T13:16:29;84916.56;;;-143.16;27.25
14885;BME280;7534;50.762;7.000;2023-07-13T13:19:25;85055.72;;;-143.16;27.59
14885;BME280;7534;50.762;7.000;2023-07-13T13:21:54;85029.50;;;-143.16;27.69
14885;BME280;7534;50.762;7.000;2023-07-13T13:24:24;85053.69;;;-143.16;28.17
14885;BME280;7534;50.762;7.000;2023-07-13T13:26:52;85061.78;;;-143.16;28.11
14885;BME280;7534;50.762;7.000;2023-07-13T13:29:22;85027.47;;;-143.16;28.06
14885;BME280;7534;50.762;7.000;2023-07-13T13:31:50;84993.19;;;-143.16;28.09
14885;BME280;7534;50.762;7.000;2023-07-13T13:34:19;85059.75;;;-143.16;28.33
14885;BME280;7534;50.762;7.000;2023-07-13T13:36:47;85011.34;;;-143.16;28.55
14885;BME280;7534;50.762;7.000;2023-07-13T13:39:24;84910.50;;;-143.16;28.13